Flight Track Log - Related Links

Times and Time Zones

All times are in EDT time to prevent confusion due to time zone crossing. See the CPZ6446 flight status page for this flight to view local times or setup timezone preferences in your user account.

Time Position Orientation Groundspeed Altitude Reporting Facility
EDT Latitude Longitude Course Direction KTS MPH feet Rate Location/Type
Sun 11:04:31 PM 33.9344 -118.4381 270° West 151 174 1,500  Level Los Angeles Center
Sun 11:05:33 PM 33.9253 -118.5253 260° West 232 267 3,400 2,323 Climbing Los Angeles Center
Sun 11:06:35 PM 33.9161 -118.6142 263° West 261 300 6,300 2,710 Climbing Los Angeles Center
Sun 11:07:37 PM 33.9058 -118.7083 263° West 282 325 9,000 2,195 Climbing Los Angeles Center
Sun 11:08:00 PM 34.0888 -118.9551 287° West  Level FlightAware Approximate
Sun 11:08:38 PM 33.8964 -118.8086 264° West 305 351 10,800  Level Los Angeles Center
Sun 11:09:00 PM 34.1167 -119.0612 270° West  Level FlightAware Approximate
Sun 11:09:40 PM 33.9225 -118.9211 286° West 351 404 12,800  Level Los Angeles Center
Sun 11:10:41 PM 33.9567 -119.0372 290° West 365 420 14,900 1,902 Climbing Los Angeles Center
Sun 11:11:43 PM 34.0264 -119.1350 311° West 381 438 16,700 1,790 Climbing Los Angeles Center
Sun 11:12:45 PM 34.1200 -119.2567 313° West 413 475 18,600 1,805 Climbing Los Angeles Center
Sun 11:13:46 PM 34.1994 -119.3608 313° West 418 481 20,400 1,610 Climbing Los Angeles Center
Sun 11:14:48 PM 34.2783 -119.4683 312° West 423 487 21,900 1,366 Climbing Los Angeles Center
Sun 11:15:49 PM 34.3611 -119.5778 313° West 438 504 23,200 1,317 Climbing Los Angeles Center
Sun 11:16:51 PM 34.4456 -119.6889 313° West 445 512 24,600 1,220 Climbing Los Angeles Center
Sun 11:17:52 PM 34.5336 -119.8008 314° West 452 520 25,700 976 Climbing Los Angeles Center
Sun 11:18:54 PM 34.6411 -119.9144 319° Northwest 462 532 26,600 774 Climbing Los Angeles Center
Sun 11:19:56 PM 34.7389 -120.0225 318° Northwest 470 541 27,300 829 Climbing Los Angeles Center
Sun 11:20:57 PM 34.8503 -120.1431 318° Northwest 480 552 28,300 732 Climbing Los Angeles Center
Sun 11:21:59 PM 34.9503 -120.2525 318° Northwest 484 557 28,800 585 Climbing Los Angeles Center
Sun 11:23:00 PM 35.0511 -120.3642 318° Northwest 491 565 29,500 416 Climbing Los Angeles Center
Sun 11:24:52 PM 35.2303 -120.5656 317° Northwest 498 573 30,000 173 Climbing Oakland Center
Sun 11:25:53 PM 35.3344 -120.6814 318° Northwest 498 573 30,000  Level Oakland Center
Sun 11:26:54 PM 35.4569 -120.8194 317° Northwest 498 573 30,000  Level Oakland Center
Sun 11:27:56 PM 35.5611 -120.9264 320° Northwest 490 564 30,000  Level Oakland Center
Sun 11:28:57 PM 35.6669 -121.0175 325° Northwest 467 537 30,000  Level Oakland Center
Sun 11:29:58 PM 35.7742 -121.1100 325° Northwest 468 539 30,000  Level Oakland Center
Sun 11:30:59 PM 35.8833 -121.2017 326° Northwest 473 544 30,000  Level Oakland Center
Sun 11:32:01 PM 35.9906 -121.2953 325° Northwest 474 545 30,000 -488 Level Oakland Center
Sun 11:33:02 PM 36.0978 -121.3883 325° Northwest 473 544 29,000 -984 Descending Oakland Center
Sun 11:34:03 PM 36.2019 -121.4817 324° Northwest 465 535 28,000 -984 Descending Oakland Center
Sun 11:35:04 PM 36.3044 -121.5697 325° Northwest 453 521 27,000 -1,328 Descending Oakland Center
Sun 11:36:05 PM 36.3994 -121.6533 325° Northwest 423 487 25,300 -1,902 Descending Oakland Center
Sun 11:37:07 PM 36.4900 -121.7350 324° Northwest 406 467 23,100 -2,098 Descending Oakland Center
Sun 11:38:08 PM 36.5828 -121.8167 325° Northwest 386 444 21,000 -2,016 Descending Oakland Center
Sun 11:39:09 PM 36.6647 -121.8936 323° Northwest 372 428 19,000 -1,869 Descending Oakland Center
Sun 11:40:10 PM 36.7469 -121.9611 327° Northwest 359 413 17,200 -1,770 Descending Oakland Center
Sun 11:41:11 PM 36.8392 -121.9897 346° North 343 395 15,400 -1,918 Descending Oakland Center
Sun 11:42:12 PM 36.9475 -122.0183 348° North 335 386 13,300 -1,820 Descending Oakland Center
Sun 11:43:13 PM 37.0356 -122.0425 348° North 331 381 11,700 -1,317 Descending Oakland Center
Sun 11:44:15 PM 37.1217 -122.0661 348° North 321 369 10,600 -1,171 Descending Oakland Center
Sun 11:45:16 PM 37.2056 -122.0867 349° North 312 359 9,300 -1,475 Descending Oakland Center
Sun 11:46:17 PM 37.2850 -122.1089 347° North 297 342 7,600 -1,623 Descending Oakland Center
Sun 11:47:18 PM 37.3644 -122.1303 348° North 293 337 6,000 -787 Descending Oakland Center
Sun 11:48:19 PM 37.4375 -122.1372 356° North 277 319 6,000 -492 Level Oakland Center
Sun 11:49:20 PM 37.5044 -122.1297 North 246 283 5,000 -984 Descending Oakland Center
Sun 11:50:21 PM 37.5353 -122.1800 308° West 213 245 4,000 -1,475 Descending Oakland Center
Sun 11:51:22 PM 37.5603 -122.2367 299° West 194 223 2,000 -1,475 Descending Oakland Center
Sun 11:52:23 PM 37.5858 -122.2972 298° West 175 201 1,000 -829 Descending Oakland Center
Sun 11:53:25 PM 37.6031 -122.3397 297° West 154 177 300 -677 Descending Oakland Center

Login

Don't have an account? Register now (free) for customized features, flight alerts, and more!